createdAt,value
2024-01-30T00:00:58.862Z,9.60
2024-01-30T00:03:47.291Z,9.43
2024-01-30T00:06:15.565Z,7.78
2024-01-30T00:08:43.738Z,6.60
2024-01-30T00:11:11.502Z,6.53
2024-01-30T00:13:39.431Z,5.90
2024-01-30T00:16:10.797Z,6.60
2024-01-30T00:18:39.317Z,7.82
2024-01-30T00:21:07.014Z,6.40
2024-01-30T00:23:35.424Z,6.55
2024-01-30T00:26:03.082Z,5.43
2024-01-30T00:28:31.086Z,5.65
2024-01-30T00:30:58.650Z,7.00
2024-01-30T00:33:27.230Z,6.82
2024-01-30T00:35:55.132Z,6.18
2024-01-30T00:38:23.961Z,6.90
2024-01-30T00:40:51.638Z,6.15
2024-01-30T00:43:20.204Z,7.40
2024-01-30T00:45:48.108Z,6.93
2024-01-30T00:48:16.335Z,8.65
2024-01-30T00:50:43.802Z,8.60
2024-01-30T00:53:11.764Z,10.90
2024-01-30T00:55:39.774Z,12.15
2024-01-30T00:58:07.818Z,11.93
2024-01-30T01:00:35.486Z,12.85
2024-01-30T01:03:04.963Z,10.87
2024-01-30T01:05:32.845Z,11.02
2024-01-30T01:08:00.864Z,12.23
2024-01-30T01:10:29.634Z,11.98
2024-01-30T01:12:57.684Z,11.32
2024-01-30T01:15:30.015Z,11.23
2024-01-30T01:17:59.014Z,10.38
2024-01-30T01:20:26.544Z,10.63
2024-01-30T01:22:54.742Z,10.30
2024-01-30T01:25:22.421Z,10.77
2024-01-30T01:27:54.063Z,9.83
2024-01-30T01:30:23.860Z,10.27
2024-01-30T01:32:56.729Z,12.77
2024-01-30T01:35:28.124Z,15.77
2024-01-30T01:37:56.719Z,14.80
2024-01-30T01:40:25.860Z,12.83
2024-01-30T01:42:55.445Z,12.93
2024-01-30T01:45:23.322Z,10.20
2024-01-30T01:47:54.370Z,10.27
2024-01-30T01:50:23.658Z,14.50
2024-01-30T01:52:53.087Z,17.23
2024-01-30T01:55:26.465Z,17.33
2024-01-30T01:57:55.558Z,15.77
2024-01-30T02:00:23.737Z,12.80
2024-01-30T02:02:53.342Z,12.43
2024-01-30T02:05:21.461Z,10.47
2024-01-30T02:07:49.877Z,9.57
2024-01-30T02:10:17.680Z,12.27
2024-01-30T02:12:45.719Z,11.90
2024-01-30T02:15:15.668Z,10.80
2024-01-30T02:17:43.678Z,12.00
2024-01-30T02:20:11.956Z,11.43
2024-01-30T02:22:41.702Z,14.68
2024-01-30T02:25:09.784Z,15.30
2024-01-30T02:27:37.806Z,12.30
2024-01-30T02:30:06.165Z,11.03
2024-01-30T02:32:34.219Z,11.65
2024-01-30T02:35:01.994Z,14.40
2024-01-30T02:37:30.041Z,13.25
2024-01-30T02:39:57.904Z,12.07
2024-01-30T02:42:25.734Z,10.57
2024-01-30T02:44:53.322Z,9.10
2024-01-30T02:47:21.304Z,9.15
2024-01-30T02:49:49.593Z,7.25
2024-01-30T02:52:18.294Z,4.72
2024-01-30T02:54:45.961Z,3.93
2024-01-30T02:57:13.966Z,4.60
2024-01-30T02:59:41.602Z,4.88
2024-01-30T03:02:09.590Z,4.25
2024-01-30T03:04:37.222Z,4.28
2024-01-30T03:07:05.604Z,4.17
2024-01-30T03:09:33.189Z,3.10
2024-01-30T03:12:01.327Z,4.35
2024-01-30T03:14:29.090Z,3.95
2024-01-30T03:16:57.020Z,4.60
2024-01-30T03:19:24.776Z,7.03
2024-01-30T03:21:53.036Z,4.50
2024-01-30T03:24:20.797Z,4.25
2024-01-30T03:26:48.809Z,3.75
2024-01-30T03:29:17.614Z,4.60
2024-01-30T03:31:45.608Z,4.20
2024-01-30T03:34:13.442Z,4.28
2024-01-30T03:36:45.986Z,4.10
2024-01-30T03:39:13.512Z,4.68
2024-01-30T03:41:45.848Z,3.65
2024-01-30T03:44:13.789Z,5.40
2024-01-30T03:46:41.558Z,5.00
2024-01-30T03:49:09.389Z,7.18
2024-01-30T03:51:37.337Z,6.20
2024-01-30T03:54:05.013Z,8.45
2024-01-30T03:56:32.865Z,7.67
2024-01-30T03:59:02.107Z,8.23
2024-01-30T04:01:30.152Z,8.40
2024-01-30T04:03:58.437Z,9.50
2024-01-30T04:06:26.531Z,12.75
2024-01-30T04:08:54.191Z,14.87
2024-01-30T04:11:22.304Z,11.43
2024-01-30T04:13:51.018Z,10.05
2024-01-30T04:16:24.071Z,9.50
2024-01-30T04:18:53.345Z,9.68
2024-01-30T04:21:23.290Z,10.37
2024-01-30T04:23:53.008Z,9.85
2024-01-30T04:26:21.106Z,10.63
2024-01-30T04:28:48.807Z,9.63
2024-01-30T04:31:16.765Z,13.35
2024-01-30T04:33:44.552Z,13.23
2024-01-30T04:36:12.672Z,10.75
2024-01-30T04:38:40.814Z,9.85
2024-01-30T04:41:08.934Z,11.05
2024-01-30T04:43:37.376Z,10.20
2024-01-30T04:46:06.559Z,8.67
2024-01-30T04:48:34.546Z,9.98
2024-01-30T04:51:05.324Z,10.70
2024-01-30T04:53:33.493Z,15.77
2024-01-30T04:56:01.555Z,9.13
2024-01-30T04:58:29.644Z,15.60
2024-01-30T05:00:58.773Z,13.25
2024-01-30T05:03:26.972Z,11.18
2024-01-30T05:05:55.401Z,9.68
2024-01-30T05:08:23.346Z,12.43
2024-01-30T05:10:51.325Z,12.43
2024-01-30T05:13:19.189Z,14.70
2024-01-30T05:15:47.198Z,20.67
2024-01-30T05:18:15.308Z,15.63
2024-01-30T05:20:43.736Z,16.42
2024-01-30T05:23:11.991Z,11.07
2024-01-30T05:25:40.328Z,14.07
2024-01-30T05:28:08.314Z,15.57
2024-01-30T05:30:36.854Z,14.02
2024-01-30T05:33:05.531Z,12.95
2024-01-30T05:35:33.867Z,10.87
2024-01-30T05:38:02.041Z,14.75
2024-01-30T05:40:30.222Z,15.68
2024-01-30T05:43:02.936Z,21.20
2024-01-30T05:45:31.368Z,17.33
2024-01-30T05:47:59.202Z,17.60
2024-01-30T05:50:28.162Z,16.92
2024-01-30T05:52:55.850Z,12.65
2024-01-30T05:55:24.433Z,14.02
2024-01-30T05:57:53.996Z,12.18
2024-01-30T06:00:22.415Z,21.23
2024-01-30T06:02:50.228Z,17.17
2024-01-30T06:05:18.838Z,28.27
2024-01-30T06:07:46.627Z,29.65
2024-01-30T06:10:15.197Z,20.05
2024-01-30T06:12:43.109Z,18.43
2024-01-30T06:15:11.587Z,18.50
2024-01-30T06:17:39.287Z,14.93
2024-01-30T06:20:08.269Z,15.80
2024-01-30T06:22:36.060Z,20.25
2024-01-30T06:25:04.505Z,52.03
2024-01-30T06:27:32.216Z,34.88
2024-01-30T06:30:00.568Z,17.02
2024-01-30T06:33:00.449Z,20.15
2024-01-30T06:35:30.479Z,24.25
2024-01-30T06:38:01.181Z,22.77
2024-01-30T06:40:30.465Z,27.55
2024-01-30T06:42:59.015Z,25.25
2024-01-30T06:45:27.417Z,18.90
2024-01-30T06:47:55.282Z,29.10
2024-01-30T06:50:24.421Z,22.87
2024-01-30T06:52:52.520Z,18.52
2024-01-30T06:55:21.092Z,18.38
2024-01-30T06:57:50.021Z,35.63
2024-01-30T07:00:21.437Z,20.73
2024-01-30T07:02:49.423Z,19.53
2024-01-30T07:05:19.937Z,21.83
2024-01-30T07:07:48.960Z,21.20
2024-01-30T07:10:21.305Z,17.88
2024-01-30T07:12:49.533Z,13.13
2024-01-30T07:18:31.502Z,12.60
2024-01-30T07:20:59.945Z,14.35
2024-01-30T07:23:28.230Z,14.50
2024-01-30T07:25:56.791Z,13.57
2024-01-30T07:28:24.846Z,38.80
2024-01-30T07:30:53.534Z,15.05
2024-01-30T07:33:21.930Z,14.20
2024-01-30T07:35:50.648Z,13.82
2024-01-30T07:38:18.585Z,18.15
2024-01-30T07:40:47.585Z,15.17
2024-01-30T07:43:15.481Z,13.88
2024-01-30T07:45:44.047Z,14.90
2024-01-30T07:48:12.330Z,15.43
2024-01-30T07:50:40.934Z,14.50
2024-01-30T07:53:08.946Z,14.93
2024-01-30T07:55:37.746Z,15.35
2024-01-30T07:58:06.462Z,14.07
2024-01-30T08:00:35.160Z,14.20
2024-01-30T08:03:03.362Z,13.65
2024-01-30T08:05:32.641Z,15.13
2024-01-30T08:08:03.840Z,14.50
2024-01-30T08:10:32.549Z,13.30
2024-01-30T08:13:00.780Z,14.60
2024-01-30T08:15:29.453Z,15.82
2024-01-30T08:18:22.954Z,18.67
2024-01-30T08:20:51.550Z,17.70
2024-01-30T08:23:19.603Z,16.30
2024-01-30T08:25:48.074Z,16.15
2024-01-30T08:28:18.055Z,13.68
2024-01-30T08:30:47.305Z,14.47
2024-01-30T08:33:15.409Z,13.98
2024-01-30T08:35:44.049Z,15.70
2024-01-30T08:38:15.625Z,14.70
2024-01-30T08:40:44.288Z,15.95
2024-01-30T08:43:12.767Z,14.80
2024-01-30T08:45:41.294Z,14.90
2024-01-30T08:48:09.979Z,16.58
2024-01-30T08:50:39.228Z,16.58
2024-01-30T08:53:07.146Z,14.52
2024-01-30T08:55:35.672Z,14.80
2024-01-30T08:58:05.652Z,14.32
2024-01-30T09:00:33.759Z,15.57
2024-01-30T09:03:01.395Z,15.52
2024-01-30T09:05:29.602Z,14.52
2024-01-30T09:07:57.484Z,13.60
2024-01-30T09:10:26.038Z,13.15
2024-01-30T09:12:54.304Z,14.80
2024-01-30T09:15:26.559Z,14.93
2024-01-30T09:17:55.628Z,13.00
2024-01-30T09:20:24.598Z,13.53
2024-01-30T09:22:52.330Z,12.63
2024-01-30T09:25:20.903Z,12.43
2024-01-30T09:27:48.968Z,12.75
2024-01-30T09:30:17.317Z,12.73
2024-01-30T09:32:45.385Z,13.20
2024-01-30T09:35:13.671Z,12.85
2024-01-30T09:37:41.621Z,10.88
2024-01-30T09:40:10.416Z,13.15
2024-01-30T09:42:38.838Z,14.05
2024-01-30T09:45:07.911Z,14.23
2024-01-30T09:47:44.544Z,11.63
2024-01-30T09:50:14.881Z,9.73
2024-01-30T09:52:44.495Z,8.57
2024-01-30T09:55:13.451Z,8.73
2024-01-30T09:57:43.306Z,8.57
2024-01-30T10:00:12.780Z,9.07
2024-01-30T10:02:42.122Z,11.63
2024-01-30T10:05:11.169Z,13.43
2024-01-30T10:07:39.891Z,12.02
2024-01-30T10:10:08.729Z,12.43
2024-01-30T10:12:37.115Z,12.68
2024-01-30T10:15:10.116Z,13.02
2024-01-30T10:17:40.580Z,13.07
2024-01-30T10:20:09.925Z,13.77
2024-01-30T10:22:38.223Z,12.87
2024-01-30T10:25:07.560Z,13.27
2024-01-30T10:27:35.936Z,12.82
2024-01-30T10:30:05.602Z,11.40
2024-01-30T10:32:33.714Z,12.18
2024-01-30T10:35:02.667Z,11.90
2024-01-30T10:37:34.655Z,11.10
2024-01-30T10:40:07.547Z,11.10
2024-01-30T10:42:39.624Z,10.93
2024-01-30T10:45:16.343Z,10.95
2024-01-30T10:48:05.718Z,10.43
2024-01-30T10:50:40.337Z,10.05
2024-01-30T10:53:12.368Z,9.70
2024-01-30T10:55:43.778Z,8.90
2024-01-30T10:58:13.438Z,9.50
2024-01-30T11:00:42.329Z,8.30
2024-01-30T11:03:11.083Z,9.02
2024-01-30T11:05:43.330Z,7.95
2024-01-30T11:08:15.971Z,9.00
2024-01-30T11:10:48.009Z,9.10
2024-01-30T11:13:17.180Z,8.07
2024-01-30T11:15:54.920Z,8.35
2024-01-30T11:18:33.328Z,8.52
2024-01-30T11:21:08.208Z,8.75
2024-01-30T11:23:37.752Z,10.90
2024-01-30T11:26:06.007Z,10.50
2024-01-30T11:28:39.546Z,7.80
2024-01-30T11:31:08.872Z,7.97
2024-01-30T11:33:36.792Z,7.90
2024-01-30T11:36:08.615Z,7.97
2024-01-30T11:38:36.477Z,7.37
2024-01-30T11:41:07.949Z,9.25
2024-01-30T11:43:55.471Z,5.60
2024-01-30T11:46:26.994Z,6.07
2024-01-30T11:48:55.042Z,8.63
2024-01-30T11:51:23.096Z,5.90
2024-01-30T11:53:52.177Z,6.53
2024-01-30T11:56:20.693Z,7.50
2024-01-30T11:58:49.396Z,5.78
2024-01-30T12:01:18.976Z,6.28
2024-01-30T12:03:53.205Z,5.90
2024-01-30T12:06:21.879Z,5.13
2024-01-30T12:09:00.732Z,5.25
2024-01-30T12:11:32.571Z,4.60
2024-01-30T12:14:08.407Z,5.22
2024-01-30T12:16:41.584Z,5.50
2024-01-30T12:19:09.720Z,5.68
2024-01-30T12:21:39.877Z,6.93
2024-01-30T12:24:09.043Z,5.80
2024-01-30T12:26:37.062Z,6.25
2024-01-30T12:29:07.405Z,5.50
2024-01-30T12:31:35.856Z,5.38
2024-01-30T12:34:03.968Z,5.80
2024-01-30T12:36:32.747Z,4.35
2024-01-30T12:39:00.728Z,5.28
2024-01-30T12:41:30.402Z,4.03
2024-01-30T12:43:59.527Z,4.38
2024-01-30T12:46:31.653Z,4.00
2024-01-30T12:48:59.677Z,4.30
2024-01-30T12:51:28.196Z,4.38
2024-01-30T12:53:56.228Z,4.00
2024-01-30T12:56:24.509Z,4.60
2024-01-30T12:58:55.547Z,4.40
2024-01-30T13:01:24.723Z,3.90
2024-01-30T13:03:52.711Z,4.97
2024-01-30T13:06:21.349Z,8.20
2024-01-30T13:08:49.287Z,4.10
2024-01-30T13:11:25.155Z,3.45
2024-01-30T13:13:53.572Z,3.47
2024-01-30T13:16:21.726Z,3.53
2024-01-30T13:18:49.881Z,3.80
2024-01-30T13:21:17.890Z,3.67
2024-01-30T13:23:45.787Z,7.00
2024-01-30T13:26:14.083Z,4.45
2024-01-30T13:28:42.054Z,5.72
2024-01-30T13:31:10.475Z,14.73
2024-01-30T13:33:38.456Z,5.72
2024-01-30T13:36:09.461Z,4.53
2024-01-30T13:38:53.306Z,4.97
2024-01-30T13:41:31.636Z,5.20
2024-01-30T13:44:00.835Z,7.40
2024-01-30T13:46:47.925Z,6.00
2024-01-30T13:49:16.332Z,6.53
2024-01-30T13:51:44.691Z,7.35
2024-01-30T13:54:12.599Z,4.80
2024-01-30T13:56:56.422Z,8.90
2024-01-30T13:59:55.062Z,7.68
2024-01-30T14:02:37.285Z,23.42
2024-01-30T14:05:11.500Z,9.02
2024-01-30T14:07:41.985Z,30.17
2024-01-30T14:10:14.582Z,22.60
2024-01-30T14:15:42.889Z,11.57
2024-01-30T14:18:39.041Z,9.35
2024-01-30T14:21:10.165Z,11.77
2024-01-30T14:23:38.689Z,9.03
2024-01-30T14:26:08.302Z,6.97
2024-01-30T14:28:36.039Z,8.25
2024-01-30T14:31:05.104Z,10.95
2024-01-30T14:33:34.277Z,8.02
2024-01-30T14:36:02.431Z,6.73
2024-01-30T14:38:30.366Z,9.02
2024-01-30T14:40:58.701Z,7.13
2024-01-30T14:43:28.154Z,8.63
2024-01-30T14:45:56.673Z,8.27
2024-01-30T14:48:24.608Z,9.37
2024-01-30T14:50:52.707Z,10.75
2024-01-30T14:53:20.332Z,7.35
2024-01-30T14:55:48.379Z,7.88
2024-01-30T14:58:16.158Z,7.43
2024-01-30T15:00:44.704Z,6.37
2024-01-30T15:03:12.400Z,10.13
2024-01-30T15:05:40.888Z,7.22
2024-01-30T15:08:12.121Z,6.13
2024-01-30T15:10:40.813Z,7.32
2024-01-30T15:13:10.209Z,7.20
2024-01-30T15:15:38.686Z,8.88
2024-01-30T15:18:06.710Z,7.90
2024-01-30T15:20:35.055Z,6.97
2024-01-30T15:23:07.976Z,6.97
2024-01-30T15:25:36.175Z,9.13
2024-01-30T15:28:04.394Z,9.50
2024-01-30T15:30:32.604Z,9.50
2024-01-30T15:33:00.668Z,9.75
2024-01-30T15:35:32.684Z,10.75
2024-01-30T15:38:09.898Z,9.93
2024-01-30T15:40:38.010Z,9.43
2024-01-30T15:43:05.751Z,10.25
2024-01-30T15:45:33.977Z,10.98
2024-01-30T15:48:03.739Z,9.80
2024-01-30T15:50:32.192Z,9.50
2024-01-30T15:53:11.610Z,9.85
2024-01-30T15:55:44.018Z,10.23
2024-01-30T15:59:31.402Z,10.73
2024-01-30T16:02:00.752Z,12.98
2024-01-30T16:04:58.581Z,15.03
2024-01-30T16:07:26.806Z,17.27
2024-01-30T16:09:54.595Z,21.73
2024-01-30T16:12:22.777Z,21.77
2024-01-30T16:14:50.457Z,21.58
2024-01-30T16:17:25.432Z,17.80
2024-01-30T16:19:53.337Z,17.02
2024-01-30T16:22:45.720Z,17.80
2024-01-30T16:25:19.312Z,17.67
2024-01-30T16:27:47.414Z,18.08
2024-01-30T16:30:44.985Z,14.87
2024-01-30T16:34:00.946Z,11.93
2024-01-30T16:36:44.829Z,9.55
2024-01-30T16:39:13.445Z,11.85
2024-01-30T16:41:41.922Z,11.30
